Mudanjiang, China
Current Conditions -  °F | °C
As of 12:00 AM on Saturday 22 Nov 2014 (Local Time) from UHWW Reporting Station
Haze Haze  
Wind Chill: 32°   Ceiling: 10000
Heat Index: 32°   Visibility: 1.1mi
Dew Point: 32°   Wind: 0mph
Humidity: 100%   Direction: NA
Pressure: 30.09"   Gusts: NA
Location:  44.58°N, 129.6°E
Report Text: UHWW 211600Z 00000MPS 1800 BR BKN100 00/M00 Q1019 BEMG 0500FZFG VV002 RMK QFE763/1017 2519//65
Loading
Personal Weather Stations






























Interactive Weather Map New forecast layout! Learn more

10-Day Weather Forecast

Advertisements
Track Severe Weather on mobile